»·PEaware :: AAL243 KJFK-KPWM

AAL243 :: KJFK-KPWM

FLIGHT INFORMATION

Flight Status: Arrived
Operator:
American Airlines
More flights by this operator :: More flights under this callsign
Pilot: Cullen C. (7783)
Aircraft: BOEING 737-800
(B738)
More flights by this aircraft type
Origin: KJFK Kennedy Intl
United States
Destination: KPWM Portland Intl
United States
More flights between these airports :: More routes between these airports
Route: GREKI4 JUDDS CAM CDOGG3
File this flight plan on PilotEdge
Remarks:
Altitude:
(Current/Filed)
37,000ft
Speed:
(Current/Filed)
463kts
Departed: 22-Jul-17 08:23 AM
Arrived: 22-Jul-17 08:58 AM
Distance/Time
Traveled:
237nm/0:35
Distance/Time
To Go:
Arrived

Flight Plot

Page will automatically refresh every two minutes.

Flight plan parsing failed; only flown route is shown


Map Options




Map Legend


Flown Route
Filed Route
Departure Airport
Arrival Airport
Navaid (VOR, NDB)
Fix

Horizontal Profiles

Position Reports

Time Latitude Longitude Heading Altitude Ground
Speed
22-Jul-17 08:10 40.650482 -73.790822 330 21ft 0kts
22-Jul-17 08:11 40.650482 -73.790822 330 21ft 0kts
22-Jul-17 08:12 40.650482 -73.790822 330 21ft 0kts
22-Jul-17 08:13 40.650482 -73.790822 330 21ft 0kts
22-Jul-17 08:14 40.650482 -73.790822 330 21ft 0kts
22-Jul-17 08:15 40.650482 -73.790822 330 21ft 0kts
22-Jul-17 08:16 40.650482 -73.790822 330 21ft 0kts
22-Jul-17 08:17 40.650196 -73.790612 330 20ft 2kts
22-Jul-17 08:18 40.649720 -73.790841 64 20ft 2kts
22-Jul-17 08:19 40.649624 -73.791073 59 20ft 0kts
22-Jul-17 08:20 40.649750 -73.790786 60 20ft 5kts
22-Jul-17 08:21 40.651559 -73.787393 68 20ft 15kts
22-Jul-17 08:22 40.651533 -73.781346 120 20ft 21kts
22-Jul-17 08:23 40.648420 -73.774452 121 21ft 19kts
22-Jul-17 08:24 40.649038 -73.769242 54 21ft 13kts
22-Jul-17 08:25 40.648448 -73.765043 183 20ft 15kts
22-Jul-17 08:26 40.621998 -73.783795 192 1415ft 170kts
22-Jul-17 08:27 40.599545 -73.741793 67 3972ft 202kts
22-Jul-17 08:28 40.652967 -73.717329 3 5901ft 267kts
22-Jul-17 08:29 40.728428 -73.694366 15 9025ft 303kts
22-Jul-17 08:30 40.810788 -73.655991 17 11961ft 343kts
22-Jul-17 08:31 40.899645 -73.611538 17 15456ft 355kts
22-Jul-17 08:32 40.992383 -73.564421 17 18536ft 371kts
22-Jul-17 08:33 41.088506 -73.515078 15 21438ft 383kts
22-Jul-17 08:34 41.172266 -73.472277 13 23608ft 394kts
22-Jul-17 08:35 41.273898 -73.420352 13 25809ft 410kts
22-Jul-17 08:36 41.482237 -73.311258 20 30003ft 424kts
22-Jul-17 08:37 41.610701 -73.139567 36 32659ft 437kts
22-Jul-17 08:38 41.697131 -73.042677 28 33915ft 431kts
22-Jul-17 08:39 41.791439 -72.945404 28 35233ft 431kts
22-Jul-17 08:40 41.947014 -72.782939 28 36959ft 436kts
22-Jul-17 08:41 42.254905 -72.458396 29 36945ft 458kts
22-Jul-17 08:42 42.360915 -72.345254 29 34648ft 444kts
22-Jul-17 08:43 42.572667 -72.118852 30 29969ft 429kts
22-Jul-17 08:44 42.819367 -71.852205 31 24917ft 426kts
22-Jul-17 08:45 43.040280 -71.609892 30 20111ft 396kts
22-Jul-17 08:46 43.175093 -71.462408 31 17189ft 367kts
22-Jul-17 08:47 43.301045 -71.323003 33 14158ft 359kts
22-Jul-17 08:48 43.515556 -71.016325 69 11046ft 343kts
22-Jul-17 08:49 43.524530 -70.601054 91 11064ft 357kts
22-Jul-17 08:50 43.515823 -70.435750 92 9787ft 344kts
22-Jul-17 08:51 43.503790 -70.231109 91 7114ft 298kts
22-Jul-17 08:52 43.502710 -70.033233 53 4688ft 248kts
22-Jul-17 08:53 43.552578 -69.982358 30 3628ft 206kts
22-Jul-17 08:54 43.595593 -69.972768 0 2998ft 186kts
22-Jul-17 08:55 43.631564 -70.003190 262 3034ft 194kts
22-Jul-17 08:56 43.629531 -70.071663 273 3030ft 169kts
22-Jul-17 08:57 43.633120 -70.137278 275 2405ft 171kts
22-Jul-17 08:58 43.637237 -70.198534 275 1529ft 158kts
22-Jul-17 08:59 43.641264 -70.258501 274 700ft 156kts
22-Jul-17 09:00 43.644989 -70.313154 275 85ft 51kts
22-Jul-17 09:01 43.646223 -70.314912 91 85ft 1kts
22-Jul-17 09:02 43.646734 -70.313296 26 85ft 0kts
22-Jul-17 09:03 43.646734 -70.313296 26 85ft 0kts
22-Jul-17 09:04 43.646734 -70.313296 26 85ft 0kts

Navigation Log

Ident Type
Flight plan parsing failed, navigation log unavailable